Valor — WDD8691 — position and weather

sailwx.info

Track history (hours):
 
Tides and Currents Weather Stations Pressure Air Temp Water Temp Dewpoint Dewpoint Depression Visibility Wind Speed Wind Dir Waves Ship Positions

Valor

Owner: Crowley Marine Services, Seattle, WA. More information available from US FCC via Universal Licensing System and Coast Guard Vessel Documentation Center.

Last reported at 2017-Oct-20 03:00 UTC. Time now 2017-Oct-20 03:06 UTC.
Position N 37°48' W 122°24'.

Length 8 m; draft 5.5 m.

Type: Tug. MMSI: 367301480.

Date/timePositionNaut miles runAvg speedWind from/ knotsBaromVisibWave heightAir tempDewpointWater temp
2017-Oct-20 03:00N 37°48' W 122°24'0 0.0
2017-Oct-20 02:30N 37°48' W 122°24'0 0.0
2017-Oct-20 02:00N 37°48' W 122°24'0 0.0
2017-Oct-20 01:30N 37°48' W 122°24'0 0.0
2017-Oct-20 01:00N 37°48' W 122°24'1 1.9
2017-Oct-20 00:30N 37°49' W 122°25'3 6.7
2017-Oct-20 00:00N 37°49' W 122°29'2 3.8
2017-Oct-19 23:30N 37°49' W 122°31'510.5
2017-Oct-19 23:00N 37°51' W 122°25'510.3
2017-Oct-19 22:30N 37°56' W 122°27'610.5
2017-Oct-19 21:58N 38°01' W 122°24'4 8.3
2017-Oct-19 21:29N 38°03' W 122°20'9 0.7
2017-Oct-19 08:39N 38°02' W 122°08'0 0.2
2017-Oct-19 07:27N 38°02' W 122°08'1 1.5
2017-Oct-19 06:36N 38°02' W 122°09'0 1.0
2017-Oct-19 06:26N 38°02' W 122°09'1 0.6
2017-Oct-19 05:16N 38°02' W 122°08'1 0.3
2017-Oct-19 01:30N 38°02' W 122°10'1 0.2
2017-Oct-18 19:05N 38°02' W 122°08'0 0.0
2017-Oct-18 18:59N 38°02' W 122°08'0 0.0
2017-Oct-18 16:37N 38°02' W 122°08'0 0.0
2017-Oct-18 16:30N 38°02' W 122°08'1 0.1
2017-Oct-18 04:44N 38°02' W 122°10'1 1.5
2017-Oct-18 03:50N 38°02' W 122°08'0 0.1
2017-Oct-17 23:07N 38°02' W 122°08'0 0.1
2017-Oct-17 23:00N 38°02' W 122°08'0 0.0
2017-Oct-17 22:30N 38°02' W 122°08'0 0.4
2017-Oct-17 22:00N 38°02' W 122°08'2 3.7
2017-Oct-17 21:28N 38°03' W 122°11'2 5.0
2017-Oct-17 21:00N 38°04' W 122°13'3 6.0
2017-Oct-17 20:27N 38°03' W 122°17'5 8.3
2017-Oct-17 19:53N 38°02' W 122°23'3 8.2
2017-Oct-17 19:28N 37°59' W 122°26'4 9.3
2017-Oct-17 19:00N 37°55' W 122°27'5 9.6
2017-Oct-17 18:30N 37°50' W 122°24'4 7.5
2017-Oct-17 18:00N 37°49' W 122°29'1 2.9
2017-Oct-17 17:30N 37°48' W 122°30'1 1.8
2017-Oct-17 17:00N 37°48' W 122°29'3 6.1
2017-Oct-17 16:30N 37°49' W 122°25'1 2.7
2017-Oct-17 16:00N 37°48' W 122°24'0 0.0
2017-Oct-17 15:30N 37°48' W 122°24'0 0.0
2017-Oct-17 15:00N 37°48' W 122°24'0 0.0
2017-Oct-17 14:30N 37°48' W 122°24'0 0.0
2017-Oct-17 14:00N 37°48' W 122°24'0 0.0
2017-Oct-17 13:30N 37°48' W 122°24'0 0.0
2017-Oct-17 13:00N 37°48' W 122°24'0 0.0
2017-Oct-17 12:30N 37°48' W 122°24'0 0.0
2017-Oct-17 12:00N 37°48' W 122°24'0 0.0
2017-Oct-17 11:30N 37°48' W 122°24'0 0.0
2017-Oct-17 11:00N 37°48' W 122°24'0 0.0
2017-Oct-17 10:30N 37°48' W 122°24'0 0.0
2017-Oct-17 10:00N 37°48' W 122°24'2 3.4
2017-Oct-17 09:30N 37°48' W 122°22'2 4.3
2017-Oct-17 09:00N 37°48' W 122°19'0 0.8
2017-Oct-17 08:30N 37°48' W 122°20'3 6.9
2017-Oct-17 08:00N 37°48' W 122°24'0 0.0
2017-Oct-17 07:30N 37°48' W 122°24'0 0.0
2017-Oct-17 07:00N 37°48' W 122°24'0 0.0
2017-Oct-17 06:30N 37°48' W 122°24'0 0.0
2017-Oct-17 06:00N 37°48' W 122°24'0 0.0
2017-Oct-17 05:30N 37°48' W 122°24'0 0.1
2017-Oct-17 05:00N 37°48' W 122°24'0 0.0
2017-Oct-17 04:30N 37°48' W 122°24'0 0.0
2017-Oct-17 04:00N 37°48' W 122°24'0 0.0
2017-Oct-17 03:30N 37°48' W 122°24'0 0.0
2017-Oct-17 03:00N 37°48' W 122°24'0 0.0
2017-Oct-17 02:31N 37°48' W 122°24'0 0.0
2017-Oct-17 02:00N 37°48' W 122°24'0 0.0
2017-Oct-17 01:30N 37°48' W 122°24'0 0.0
2017-Oct-17 01:00N 37°48' W 122°24'0 0.0
2017-Oct-17 00:30N 37°48' W 122°24'0 0.0
2017-Oct-17 00:00N 37°48' W 122°24'0 0.0
2017-Oct-16 23:30N 37°48' W 122°24'0 0.1
2017-Oct-16 23:00N 37°48' W 122°24'0 0.1
2017-Oct-16 22:30N 37°48' W 122°24'0 0.0
2017-Oct-16 22:00N 37°48' W 122°24'0 0.0
2017-Oct-16 21:30N 37°48' W 122°24'0 0.0
2017-Oct-16 21:00N 37°48' W 122°24'0 0.0
2017-Oct-16 20:30N 37°48' W 122°24'3 5.3
2017-Oct-16 20:00N 37°51' W 122°25'5 9.3
2017-Oct-16 19:30N 37°55' W 122°25'0 0.3
2017-Oct-16 19:00N 37°55' W 122°25'2 4.6
2017-Oct-16 18:30N 37°54' W 122°22'1 1.3
2017-Oct-16 18:00N 37°55' W 122°22'0 0.4
2017-Oct-16 17:30N 37°55' W 122°22'0 0.1
2017-Oct-16 17:00N 37°55' W 122°22'0 0.0
2017-Oct-16 16:30N 37°55' W 122°22'1 1.2
2017-Oct-16 16:00N 37°54' W 122°22'3 5.1
2017-Oct-16 15:31N 37°52' W 122°24'4 8.3
2017-Oct-16 15:00N 37°49' W 122°21'2 3.4
2017-Oct-16 14:30N 37°48' W 122°19'1 1.3
2017-Oct-16 13:30N 37°48' W 122°17'1 1.3
2017-Oct-16 13:00N 37°48' W 122°18'1 1.9
2017-Oct-16 12:30N 37°48' W 122°19'3 5.0
2017-Oct-16 12:00N 37°48' W 122°23'2 3.4
2017-Oct-16 11:30N 37°48' W 122°21'0 0.0
2017-Oct-16 11:00N 37°48' W 122°21'0 0.0
2017-Oct-16 10:30N 37°48' W 122°21'0 0.0
2017-Oct-16 10:00N 37°48' W 122°21'0 0.0
2017-Oct-16 09:30N 37°48' W 122°21'0 0.0
2017-Oct-16 09:00N 37°48' W 122°21'0 0.0
2017-Oct-16 08:30N 37°48' W 122°21'0 0.0
2017-Oct-16 08:00N 37°48' W 122°21'0 0.3
2017-Oct-16 07:30N 37°49' W 122°20'0 0.6
2017-Oct-16 07:00N 37°49' W 122°20'0 0.0
2017-Oct-16 06:30N 37°49' W 122°20'0 0.0
2017-Oct-16 06:00N 37°49' W 122°20'0 0.0
2017-Oct-16 05:30N 37°49' W 122°20'0 0.0
2017-Oct-16 05:00N 37°49' W 122°20'0 0.0
2017-Oct-16 04:30N 37°49' W 122°20'0 0.0
2017-Oct-16 04:00N 37°49' W 122°20'3 5.7
2017-Oct-16 03:31N 37°49' W 122°24'5 9.3
2017-Oct-16 03:00N 37°49' W 122°29'1 1.6
2017-Oct-16 02:30N 37°49' W 122°30'4 7.6
2017-Oct-16 02:00N 37°50' W 122°26'4 7.4
2017-Oct-16 01:30N 37°54' W 122°26'5 9.4
2017-Oct-16 01:00N 37°59' W 122°26'610.6
2017-Oct-16 00:27N 38°03' W 122°21'610.0
2017-Oct-15 23:54N 38°04' W 122°14'5 7.8
2017-Oct-15 23:17N 38°02' W 122°08'2 0.3
2017-Oct-15 16:04N 38°03' W 122°11'1 9.3
2017-Oct-15 16:00N 38°03' W 122°11'510.0
2017-Oct-15 15:30N 38°03' W 122°17'6 9.9
2017-Oct-15 14:54N 38°00' W 122°24'9 9.6
2017-Oct-15 14:00N 37°52' W 122°24'4 7.7
2017-Oct-15 13:31N 37°49' W 122°21'1 1.1
2017-Oct-15 13:00N 37°49' W 122°20'0 0.4
2017-Oct-15 12:30N 37°49' W 122°20'1 2.6
2017-Oct-15 12:00N 37°48' W 122°22'1 2.0
2017-Oct-15 11:30N 37°48' W 122°20'0 0.0
2017-Oct-15 11:00N 37°48' W 122°20'0 0.0
2017-Oct-15 10:30N 37°48' W 122°20'0 0.0
2017-Oct-15 10:00N 37°48' W 122°20'0 0.3
2017-Oct-15 09:30N 37°48' W 122°20'0 0.1
2017-Oct-15 09:00N 37°49' W 122°20'3 5.7
2017-Oct-15 08:30N 37°48' W 122°24'0 0.0
2017-Oct-15 08:00N 37°48' W 122°24'0 0.0
2017-Oct-15 07:30N 37°48' W 122°24'0 0.0
2017-Oct-15 07:00N 37°48' W 122°24'0 0.0
2017-Oct-15 06:30N 37°48' W 122°24'0 0.0
2017-Oct-15 06:00N 37°48' W 122°24'0 0.0
2017-Oct-15 05:30N 37°48' W 122°24'0 0.0
2017-Oct-15 05:00N 37°48' W 122°24'1 2.8
2017-Oct-15 04:31N 37°50' W 122°24'4 8.6
2017-Oct-15 04:00N 37°54' W 122°25'3 5.1
2017-Oct-15 03:30N 37°55' W 122°22'0 0.1
2017-Oct-15 03:00N 37°55' W 122°22'1 1.7
2017-Oct-15 02:30N 37°54' W 122°23'2 4.3
2017-Oct-15 02:00N 37°55' W 122°25'4 7.6
2017-Oct-15 01:31N 37°51' W 122°24'3 5.8
2017-Oct-15 01:00N 37°48' W 122°24'0 0.0
2017-Oct-15 00:30N 37°48' W 122°24'0 0.0
2017-Oct-15 00:00N 37°48' W 122°24'0 0.0
2017-Oct-14 23:30N 37°48' W 122°24'0 0.0
2017-Oct-14 23:00N 37°48' W 122°24'0 0.0
2017-Oct-14 22:30N 37°48' W 122°24'0 0.0
2017-Oct-14 22:00N 37°48' W 122°24'0 0.0
2017-Oct-14 21:30N 37°48' W 122°24'0 0.0
2017-Oct-14 21:00N 37°48' W 122°24'0 0.0
2017-Oct-14 20:30N 37°48' W 122°24'0 0.0
2017-Oct-14 20:00N 37°48' W 122°24'0 0.0
2017-Oct-14 19:30N 37°48' W 122°24'0 0.0
2017-Oct-14 19:00N 37°48' W 122°24'0 0.0
2017-Oct-14 18:30N 37°48' W 122°24'0 0.0
2017-Oct-14 18:00N 37°48' W 122°24'0 0.0
2017-Oct-14 17:30N 37°48' W 122°24'0 0.0
2017-Oct-14 17:00N 37°48' W 122°24'0 0.0
2017-Oct-14 16:30N 37°48' W 122°24'0 0.0
2017-Oct-14 16:00N 37°48' W 122°24'0 0.0
2017-Oct-14 15:30N 37°48' W 122°24'0 0.0
2017-Oct-14 15:00N 37°48' W 122°24'0 0.0
2017-Oct-14 14:30N 37°48' W 122°24'1 2.8
2017-Oct-14 14:00N 37°48' W 122°22'2 4.2
2017-Oct-14 13:30N 37°48' W 122°20'0 0.8
2017-Oct-14 13:00N 37°48' W 122°19'1 2.8
2017-Oct-14 12:30N 37°48' W 122°17'2 3.5
2017-Oct-14 12:00N 37°48' W 122°20'1 1.5
2017-Oct-14 11:30N 37°48' W 122°20'3 5.4
2017-Oct-14 11:00N 37°48' W 122°24'0 0.1
2017-Oct-14 10:26N 37°48' W 122°24'0 0.1
2017-Oct-14 09:59N 37°48' W 122°24'0 0.0
2017-Oct-14 09:30N 37°48' W 122°24'0 0.0
2017-Oct-14 08:39N 37°48' W 122°24'0 0.0
2017-Oct-14 08:29N 37°48' W 122°24'0 0.0
2017-Oct-14 04:56N 37°48' W 122°24'0 0.0
2017-Oct-14 04:30N 37°48' W 122°24'0 0.0
2017-Oct-14 04:00N 37°48' W 122°24'0 0.0
2017-Oct-14 03:30N 37°48' W 122°24'3 6.9
2017-Oct-14 03:00N 37°48' W 122°20'1 2.0
2017-Oct-14 02:30N 37°48' W 122°18'1 1.4
2017-Oct-14 02:00N 37°48' W 122°18'2 3.5
2017-Oct-14 01:30N 37°48' W 122°20'3 5.4
2017-Oct-14 01:01N 37°48' W 122°23'1 1.0
2017-Oct-14 00:24N 37°48' W 122°24'0 0.0
2017-Oct-13 23:58N 37°48' W 122°24'0 0.0
2017-Oct-13 23:28N 37°48' W 122°24'0 0.0
2017-Oct-13 23:00N 37°48' W 122°24'3 6.3
2017-Oct-13 22:30N 37°49' W 122°28'2 4.5
2017-Oct-13 22:00N 37°49' W 122°31'3 6.7
2017-Oct-13 21:30N 37°50' W 122°27'4 7.5
2017-Oct-13 21:00N 37°54' W 122°26'4 7.4
2017-Oct-13 20:30N 37°57' W 122°27'510.8
2017-Oct-13 20:00N 38°02' W 122°23'510.2
2017-Oct-13 19:28N 38°04' W 122°16'5 9.5
2017-Oct-13 18:59N 38°03' W 122°10'2 4.1
2017-Oct-13 18:30N 38°02' W 122°08'0 0.0
2017-Oct-13 18:00N 38°02' W 122°08'0 0.2
2017-Oct-13 17:31N 38°02' W 122°08'1 0.3
2017-Oct-13 14:44N 38°02' W 122°09'1 1.1
2017-Oct-13 13:53N 38°02' W 122°08'2 2.8
2017-Oct-13 13:14N 38°03' W 122°10'1 5.7
2017-Oct-13 12:59N 38°03' W 122°12'2 1.1
2017-Oct-13 10:56N 38°03' W 122°15'1 1.6
2017-Oct-13 10:25N 38°03' W 122°16'1 2.1
2017-Oct-13 10:00N 38°03' W 122°15'0 0.0
2017-Oct-13 09:30N 38°03' W 122°15'0 0.0
2017-Oct-13 09:00N 38°03' W 122°15'0 0.0
2017-Oct-13 08:30N 38°03' W 122°15'0 0.0
2017-Oct-13 08:00N 38°03' W 122°15'0 0.0
2017-Oct-13 07:30N 38°03' W 122°15'0 0.0
2017-Oct-13 07:00N 38°03' W 122°15'0 0.0
2017-Oct-13 06:30N 38°03' W 122°15'0 0.0
2017-Oct-13 06:00N 38°03' W 122°15'0 0.0
2017-Oct-13 05:30N 38°03' W 122°15'0 0.1
2017-Oct-13 05:00N 38°03' W 122°15'0 0.1
2017-Oct-13 04:30N 38°03' W 122°15'0 0.1
2017-Oct-13 04:00N 38°03' W 122°15'0 0.1
2017-Oct-13 03:30N 38°03' W 122°15'0 0.0
2017-Oct-13 03:00N 38°03' W 122°15'0 0.0
2017-Oct-13 02:30N 38°03' W 122°15'0 0.1
2017-Oct-13 02:00N 38°03' W 122°15'0 0.1
2017-Oct-13 01:30N 38°03' W 122°15'0 0.0
2017-Oct-13 01:00N 38°03' W 122°15'0 0.0
2017-Oct-13 00:30N 38°03' W 122°15'0 0.0
2017-Oct-13 00:00N 38°03' W 122°15'0 0.0
2017-Oct-12 23:30N 38°03' W 122°15'0 0.0
2017-Oct-12 23:00N 38°03' W 122°15'0 0.0
2017-Oct-12 22:30N 38°03' W 122°15'0 0.0
2017-Oct-12 22:00N 38°03' W 122°15'0 0.0
2017-Oct-12 21:30N 38°03' W 122°15'0 0.0
2017-Oct-12 21:00N 38°03' W 122°15'0 0.0
2017-Oct-12 20:29N 38°03' W 122°15'0 0.1
2017-Oct-12 20:00N 38°03' W 122°15'0 0.1
2017-Oct-12 19:29N 38°03' W 122°15'6 3.5
2017-Oct-12 17:53N 38°02' W 122°08'0 0.3
2017-Oct-12 17:30N 38°02' W 122°08'0 0.3
2017-Oct-12 17:00N 38°02' W 122°08'2 0.8
2017-Oct-12 14:04N 38°03' W 122°11'1 9.9
2017-Oct-12 14:00N 38°03' W 122°11'4 7.4
2017-Oct-12 13:30N 38°03' W 122°16'0 0.0
2017-Oct-12 13:00N 38°03' W 122°16'0 0.0
2017-Oct-12 12:30N 38°03' W 122°16'0 0.2
2017-Oct-12 12:00N 38°03' W 122°16'1 0.1
2017-Oct-12 04:29N 38°04' W 122°15'3 1.5
2017-Oct-12 02:14N 38°03' W 122°11'2 7.7
2017-Oct-12 01:58N 38°04' W 122°13'4 8.9
2017-Oct-12 01:28N 38°03' W 122°19'510.6
2017-Oct-12 01:00N 38°01' W 122°24'611.2
2017-Oct-12 00:30N 37°56' W 122°27'612.3
2017-Oct-12 00:00N 37°50' W 122°24'510.9
2017-Oct-11 23:30N 37°45' W 122°20'0 0.4
2017-Oct-11 23:00N 37°46' W 122°20'4 7.7
2017-Oct-11 22:30N 37°48' W 122°24'0 0.0
2017-Oct-11 22:00N 37°48' W 122°24'0 0.0
2017-Oct-11 21:30N 37°48' W 122°24'0 0.0
2017-Oct-11 21:00N 37°48' W 122°24'0 0.0
2017-Oct-11 20:30N 37°48' W 122°24'0 0.0
2017-Oct-11 20:01N 37°48' W 122°24'0 0.0
2017-Oct-11 19:30N 37°48' W 122°24'0 0.0
2017-Oct-11 19:00N 37°48' W 122°24'0 0.0
2017-Oct-11 18:30N 37°48' W 122°24'0 0.0
2017-Oct-11 18:00N 37°48' W 122°24'0 0.0
2017-Oct-11 17:30N 37°48' W 122°24'0 0.0
2017-Oct-11 17:00N 37°48' W 122°24'6 0.3
2017-Oct-11 00:00N 37°54' W 122°26'5 9.7
2017-Oct-10 23:29N 37°59' W 122°26'4 9.0
2017-Oct-10 23:00N 38°02' W 122°22'4 8.1
2017-Oct-10 22:30N 38°03' W 122°18'3 5.8
2017-Oct-10 22:00N 38°04' W 122°14'5 6.4
2017-Oct-10 21:17N 38°02' W 122°08'2 1.7
2017-Oct-10 20:07N 38°03' W 122°11'2 8.5
2017-Oct-10 19:54N 38°04' W 122°13'1 2.4
2017-Oct-10 19:19N 38°03' W 122°15'0 0.0
2017-Oct-10 18:59N 38°03' W 122°15'0 0.0
2017-Oct-10 18:30N 38°03' W 122°15'0 0.0
2017-Oct-10 18:00N 38°03' W 122°15'0 0.0
2017-Oct-10 17:30N 38°03' W 122°15'0 0.1
2017-Oct-10 17:00N 38°03' W 122°15'0 0.1
2017-Oct-10 16:30N 38°03' W 122°15'0 0.0
2017-Oct-10 16:00N 38°03' W 122°15'0 0.0
2017-Oct-10 15:30N 38°03' W 122°15'0 0.0
2017-Oct-10 15:00N 38°03' W 122°15'0 0.0
2017-Oct-10 14:00N 38°03' W 122°15'0 0.0
2017-Oct-10 13:30N 38°03' W 122°15'0 0.0
2017-Oct-10 12:59N 38°03' W 122°15'0 0.0
2017-Oct-10 12:30N 38°03' W 122°15'0 0.0
2017-Oct-10 12:00N 38°03' W 122°15'0 0.0
2017-Oct-10 11:30N 38°03' W 122°15'0 0.0
2017-Oct-10 10:59N 38°03' W 122°15'0 0.0
2017-Oct-10 10:30N 38°03' W 122°15'0 0.0
2017-Oct-10 10:00N 38°03' W 122°15'0 0.0
2017-Oct-10 09:30N 38°03' W 122°15'3 5.1
2017-Oct-10 08:53N 38°03' W 122°19'4 9.4
2017-Oct-10 08:30N 38°01' W 122°23'5 9.7
2017-Oct-10 08:00N 37°57' W 122°26'5 9.9
2017-Oct-10 07:30N 37°52' W 122°24'4 7.8
2017-Oct-10 07:00N 37°49' W 122°22'3 5.8
2017-Oct-10 06:31N 37°48' W 122°19'1 1.8
2017-Oct-10 06:01N 37°48' W 122°17'1 1.2
2017-Oct-10 05:30N 37°48' W 122°18'2 4.2
2017-Oct-10 05:00N 37°48' W 122°21'0 0.5
2017-Oct-10 04:30N 37°48' W 122°21'0 0.0
2017-Oct-10 04:00N 37°48' W 122°21'0 0.1
2017-Oct-10 03:30N 37°48' W 122°21'0 0.6
2017-Oct-10 03:00N 37°49' W 122°21'  
Track history (hours):
 
Tides and Currents Weather Stations Pressure Air Temp Water Temp Dewpoint Dewpoint Depression Visibility Wind Speed Wind Dir Waves Ship Positions

Valor

Owner: Crowley Marine Services, Seattle, WA. More information available from US FCC via Universal Licensing System and Coast Guard Vessel Documentation Center.

Last reported at 2017-Oct-20 03:00 UTC. Time now 2017-Oct-20 03:06 UTC.
Position N 37°48' W 122°24'.

Length 8 m; draft 5.5 m.

Type: Tug. MMSI: 367301480.

Date/timePositionNaut miles runAvg speedWind from/ knotsBaromVisibWave heightAir tempDewpointWater temp
2017-Oct-20 03:00N 37°48' W 122°24'0 0.0
2017-Oct-20 02:30N 37°48' W 122°24'0 0.0
2017-Oct-20 02:00N 37°48' W 122°24'0 0.0
2017-Oct-20 01:30N 37°48' W 122°24'0 0.0
2017-Oct-20 01:00N 37°48' W 122°24'1 1.9
2017-Oct-20 00:30N 37°49' W 122°25'3 6.7
2017-Oct-20 00:00N 37°49' W 122°29'2 3.8
2017-Oct-19 23:30N 37°49' W 122°31'510.5
2017-Oct-19 23:00N 37°51' W 122°25'510.3
2017-Oct-19 22:30N 37°56' W 122°27'610.5
2017-Oct-19 21:58N 38°01' W 122°24'4 8.3
2017-Oct-19 21:29N 38°03' W 122°20'9 0.7
2017-Oct-19 08:39N 38°02' W 122°08'0 0.2
2017-Oct-19 07:27N 38°02' W 122°08'1 1.5
2017-Oct-19 06:36N 38°02' W 122°09'0 1.0
2017-Oct-19 06:26N 38°02' W 122°09'1 0.6
2017-Oct-19 05:16N 38°02' W 122°08'1 0.3
2017-Oct-19 01:30N 38°02' W 122°10'1 0.2
2017-Oct-18 19:05N 38°02' W 122°08'0 0.0
2017-Oct-18 18:59N 38°02' W 122°08'0 0.0
2017-Oct-18 16:37N 38°02' W 122°08'0 0.0
2017-Oct-18 16:30N 38°02' W 122°08'1 0.1
2017-Oct-18 04:44N 38°02' W 122°10'1 1.5
2017-Oct-18 03:50N 38°02' W 122°08'0 0.1
2017-Oct-17 23:07N 38°02' W 122°08'0 0.1
2017-Oct-17 23:00N 38°02' W 122°08'0 0.0
2017-Oct-17 22:30N 38°02' W 122°08'0 0.4
2017-Oct-17 22:00N 38°02' W 122°08'2 3.7
2017-Oct-17 21:28N 38°03' W 122°11'2 5.0
2017-Oct-17 21:00N 38°04' W 122°13'3 6.0
2017-Oct-17 20:27N 38°03' W 122°17'5 8.3
2017-Oct-17 19:53N 38°02' W 122°23'3 8.2
2017-Oct-17 19:28N 37°59' W 122°26'4 9.3
2017-Oct-17 19:00N 37°55' W 122°27'5 9.6
2017-Oct-17 18:30N 37°50' W 122°24'4 7.5
2017-Oct-17 18:00N 37°49' W 122°29'1 2.9
2017-Oct-17 17:30N 37°48' W 122°30'1 1.8
2017-Oct-17 17:00N 37°48' W 122°29'3 6.1
2017-Oct-17 16:30N 37°49' W 122°25'1 2.7
2017-Oct-17 16:00N 37°48' W 122°24'0 0.0
2017-Oct-17 15:30N 37°48' W 122°24'0 0.0
2017-Oct-17 15:00N 37°48' W 122°24'0 0.0
2017-Oct-17 14:30N 37°48' W 122°24'0 0.0
2017-Oct-17 14:00N 37°48' W 122°24'0 0.0
2017-Oct-17 13:30N 37°48' W 122°24'0 0.0
2017-Oct-17 13:00N 37°48' W 122°24'0 0.0
2017-Oct-17 12:30N 37°48' W 122°24'0 0.0
2017-Oct-17 12:00N 37°48' W 122°24'0 0.0
2017-Oct-17 11:30N 37°48' W 122°24'0 0.0
2017-Oct-17 11:00N 37°48' W 122°24'0 0.0
2017-Oct-17 10:30N 37°48' W 122°24'0 0.0
2017-Oct-17 10:00N 37°48' W 122°24'2 3.4
2017-Oct-17 09:30N 37°48' W 122°22'2 4.3
2017-Oct-17 09:00N 37°48' W 122°19'0 0.8
2017-Oct-17 08:30N 37°48' W 122°20'3 6.9
2017-Oct-17 08:00N 37°48' W 122°24'0 0.0
2017-Oct-17 07:30N 37°48' W 122°24'0 0.0
2017-Oct-17 07:00N 37°48' W 122°24'0 0.0
2017-Oct-17 06:30N 37°48' W 122°24'0 0.0
2017-Oct-17 06:00N 37°48' W 122°24'0 0.0
2017-Oct-17 05:30N 37°48' W 122°24'0 0.1
2017-Oct-17 05:00N 37°48' W 122°24'0 0.0
2017-Oct-17 04:30N 37°48' W 122°24'0 0.0
2017-Oct-17 04:00N 37°48' W 122°24'0 0.0
2017-Oct-17 03:30N 37°48' W 122°24'0 0.0
2017-Oct-17 03:00N 37°48' W 122°24'0 0.0
2017-Oct-17 02:31N 37°48' W 122°24'0 0.0
2017-Oct-17 02:00N 37°48' W 122°24'0 0.0
2017-Oct-17 01:30N 37°48' W 122°24'0 0.0
2017-Oct-17 01:00N 37°48' W 122°24'0 0.0
2017-Oct-17 00:30N 37°48' W 122°24'0 0.0
2017-Oct-17 00:00N 37°48' W 122°24'0 0.0
2017-Oct-16 23:30N 37°48' W 122°24'0 0.1
2017-Oct-16 23:00N 37°48' W 122°24'0 0.1
2017-Oct-16 22:30N 37°48' W 122°24'0 0.0
2017-Oct-16 22:00N 37°48' W 122°24'0 0.0
2017-Oct-16 21:30N 37°48' W 122°24'0 0.0
2017-Oct-16 21:00N 37°48' W 122°24'0 0.0
2017-Oct-16 20:30N 37°48' W 122°24'3 5.3
2017-Oct-16 20:00N 37°51' W 122°25'5 9.3
2017-Oct-16 19:30N 37°55' W 122°25'0 0.3
2017-Oct-16 19:00N 37°55' W 122°25'2 4.6
2017-Oct-16 18:30N 37°54' W 122°22'1 1.3
2017-Oct-16 18:00N 37°55' W 122°22'0 0.4
2017-Oct-16 17:30N 37°55' W 122°22'0 0.1
2017-Oct-16 17:00N 37°55' W 122°22'0 0.0
2017-Oct-16 16:30N 37°55' W 122°22'1 1.2
2017-Oct-16 16:00N 37°54' W 122°22'3 5.1
2017-Oct-16 15:31N 37°52' W 122°24'4 8.3
2017-Oct-16 15:00N 37°49' W 122°21'2 3.4
2017-Oct-16 14:30N 37°48' W 122°19'1 1.3
2017-Oct-16 13:30N 37°48' W 122°17'1 1.3
2017-Oct-16 13:00N 37°48' W 122°18'1 1.9
2017-Oct-16 12:30N 37°48' W 122°19'3 5.0
2017-Oct-16 12:00N 37°48' W 122°23'2 3.4
2017-Oct-16 11:30N 37°48' W 122°21'0 0.0
2017-Oct-16 11:00N 37°48' W 122°21'0 0.0
2017-Oct-16 10:30N 37°48' W 122°21'0 0.0
2017-Oct-16 10:00N 37°48' W 122°21'0 0.0
2017-Oct-16 09:30N 37°48' W 122°21'0 0.0
2017-Oct-16 09:00N 37°48' W 122°21'0 0.0
2017-Oct-16 08:30N 37°48' W 122°21'0 0.0
2017-Oct-16 08:00N 37°48' W 122°21'0 0.3
2017-Oct-16 07:30N 37°49' W 122°20'0 0.6
2017-Oct-16 07:00N 37°49' W 122°20'0 0.0
2017-Oct-16 06:30N 37°49' W 122°20'0 0.0
2017-Oct-16 06:00N 37°49' W 122°20'0 0.0
2017-Oct-16 05:30N 37°49' W 122°20'0 0.0
2017-Oct-16 05:00N 37°49' W 122°20'0 0.0
2017-Oct-16 04:30N 37°49' W 122°20'0 0.0
2017-Oct-16 04:00N 37°49' W 122°20'3 5.7
2017-Oct-16 03:31N 37°49' W 122°24'5 9.3
2017-Oct-16 03:00N 37°49' W 122°29'1 1.6
2017-Oct-16 02:30N 37°49' W 122°30'4 7.6
2017-Oct-16 02:00N 37°50' W 122°26'4 7.4
2017-Oct-16 01:30N 37°54' W 122°26'5 9.4
2017-Oct-16 01:00N 37°59' W 122°26'610.6
2017-Oct-16 00:27N 38°03' W 122°21'610.0
2017-Oct-15 23:54N 38°04' W 122°14'5 7.8
2017-Oct-15 23:17N 38°02' W 122°08'2 0.3
2017-Oct-15 16:04N 38°03' W 122°11'1 9.3
2017-Oct-15 16:00N 38°03' W 122°11'510.0
2017-Oct-15 15:30N 38°03' W 122°17'6 9.9
2017-Oct-15 14:54N 38°00' W 122°24'9 9.6
2017-Oct-15 14:00N 37°52' W 122°24'4 7.7
2017-Oct-15 13:31N 37°49' W 122°21'1 1.1
2017-Oct-15 13:00N 37°49' W 122°20'0 0.4
2017-Oct-15 12:30N 37°49' W 122°20'1 2.6
2017-Oct-15 12:00N 37°48' W 122°22'1 2.0
2017-Oct-15 11:30N 37°48' W 122°20'0 0.0
2017-Oct-15 11:00N 37°48' W 122°20'0 0.0
2017-Oct-15 10:30N 37°48' W 122°20'0 0.0
2017-Oct-15 10:00N 37°48' W 122°20'0 0.3
2017-Oct-15 09:30N 37°48' W 122°20'0 0.1
2017-Oct-15 09:00N 37°49' W 122°20'3 5.7
2017-Oct-15 08:30N 37°48' W 122°24'0 0.0
2017-Oct-15 08:00N 37°48' W 122°24'0 0.0
2017-Oct-15 07:30N 37°48' W 122°24'0 0.0
2017-Oct-15 07:00N 37°48' W 122°24'0 0.0
2017-Oct-15 06:30N 37°48' W 122°24'0 0.0
2017-Oct-15 06:00N 37°48' W 122°24'0 0.0
2017-Oct-15 05:30N 37°48' W 122°24'0 0.0
2017-Oct-15 05:00N 37°48' W 122°24'1 2.8
2017-Oct-15 04:31N 37°50' W 122°24'4 8.6
2017-Oct-15 04:00N 37°54' W 122°25'3 5.1
2017-Oct-15 03:30N 37°55' W 122°22'0 0.1
2017-Oct-15 03:00N 37°55' W 122°22'1 1.7
2017-Oct-15 02:30N 37°54' W 122°23'2 4.3
2017-Oct-15 02:00N 37°55' W 122°25'4 7.6
2017-Oct-15 01:31N 37°51' W 122°24'3 5.8
2017-Oct-15 01:00N 37°48' W 122°24'0 0.0
2017-Oct-15 00:30N 37°48' W 122°24'0 0.0
2017-Oct-15 00:00N 37°48' W 122°24'0 0.0
2017-Oct-14 23:30N 37°48' W 122°24'0 0.0
2017-Oct-14 23:00N 37°48' W 122°24'0 0.0
2017-Oct-14 22:30N 37°48' W 122°24'0 0.0
2017-Oct-14 22:00N 37°48' W 122°24'0 0.0
2017-Oct-14 21:30N 37°48' W 122°24'0 0.0
2017-Oct-14 21:00N 37°48' W 122°24'0 0.0
2017-Oct-14 20:30N 37°48' W 122°24'0 0.0
2017-Oct-14 20:00N 37°48' W 122°24'0 0.0
2017-Oct-14 19:30N 37°48' W 122°24'0 0.0
2017-Oct-14 19:00N 37°48' W 122°24'0 0.0
2017-Oct-14 18:30N 37°48' W 122°24'0 0.0
2017-Oct-14 18:00N 37°48' W 122°24'0 0.0
2017-Oct-14 17:30N 37°48' W 122°24'0 0.0
2017-Oct-14 17:00N 37°48' W 122°24'0 0.0
2017-Oct-14 16:30N 37°48' W 122°24'0 0.0
2017-Oct-14 16:00N 37°48' W 122°24'0 0.0
2017-Oct-14 15:30N 37°48' W 122°24'0 0.0
2017-Oct-14 15:00N 37°48' W 122°24'0 0.0
2017-Oct-14 14:30N 37°48' W 122°24'1 2.8
2017-Oct-14 14:00N 37°48' W 122°22'2 4.2
2017-Oct-14 13:30N 37°48' W 122°20'0 0.8
2017-Oct-14 13:00N 37°48' W 122°19'1 2.8
2017-Oct-14 12:30N 37°48' W 122°17'2 3.5
2017-Oct-14 12:00N 37°48' W 122°20'1 1.5
2017-Oct-14 11:30N 37°48' W 122°20'3 5.4
2017-Oct-14 11:00N 37°48' W 122°24'0 0.1
2017-Oct-14 10:26N 37°48' W 122°24'0 0.1
2017-Oct-14 09:59N 37°48' W 122°24'0 0.0
2017-Oct-14 09:30N 37°48' W 122°24'0 0.0
2017-Oct-14 08:39N 37°48' W 122°24'0 0.0
2017-Oct-14 08:29N 37°48' W 122°24'0 0.0
2017-Oct-14 04:56N 37°48' W 122°24'0 0.0
2017-Oct-14 04:30N 37°48' W 122°24'0 0.0
2017-Oct-14 04:00N 37°48' W 122°24'0 0.0
2017-Oct-14 03:30N 37°48' W 122°24'3 6.9
2017-Oct-14 03:00N 37°48' W 122°20'1 2.0
2017-Oct-14 02:30N 37°48' W 122°18'1 1.4
2017-Oct-14 02:00N 37°48' W 122°18'2 3.5
2017-Oct-14 01:30N 37°48' W 122°20'3 5.4
2017-Oct-14 01:01N 37°48' W 122°23'1 1.0
2017-Oct-14 00:24N 37°48' W 122°24'0 0.0
2017-Oct-13 23:58N 37°48' W 122°24'0 0.0
2017-Oct-13 23:28N 37°48' W 122°24'0 0.0
2017-Oct-13 23:00N 37°48' W 122°24'3 6.3
2017-Oct-13 22:30N 37°49' W 122°28'2 4.5
2017-Oct-13 22:00N 37°49' W 122°31'3 6.7
2017-Oct-13 21:30N 37°50' W 122°27'4 7.5
2017-Oct-13 21:00N 37°54' W 122°26'4 7.4
2017-Oct-13 20:30N 37°57' W 122°27'510.8
2017-Oct-13 20:00N 38°02' W 122°23'510.2
2017-Oct-13 19:28N 38°04' W 122°16'5 9.5
2017-Oct-13 18:59N 38°03' W 122°10'2 4.1
2017-Oct-13 18:30N 38°02' W 122°08'0 0.0
2017-Oct-13 18:00N 38°02' W 122°08'0 0.2
2017-Oct-13 17:31N 38°02' W 122°08'1 0.3
2017-Oct-13 14:44N 38°02' W 122°09'1 1.1
2017-Oct-13 13:53N 38°02' W 122°08'2 2.8
2017-Oct-13 13:14N 38°03' W 122°10'1 5.7
2017-Oct-13 12:59N 38°03' W 122°12'2 1.1
2017-Oct-13 10:56N 38°03' W 122°15'1 1.6
2017-Oct-13 10:25N 38°03' W 122°16'1 2.1
2017-Oct-13 10:00N 38°03' W 122°15'0 0.0
2017-Oct-13 09:30N 38°03' W 122°15'0 0.0
2017-Oct-13 09:00N 38°03' W 122°15'0 0.0
2017-Oct-13 08:30N 38°03' W 122°15'0 0.0
2017-Oct-13 08:00N 38°03' W 122°15'0 0.0
2017-Oct-13 07:30N 38°03' W 122°15'0 0.0
2017-Oct-13 07:00N 38°03' W 122°15'0 0.0
2017-Oct-13 06:30N 38°03' W 122°15'0 0.0
2017-Oct-13 06:00N 38°03' W 122°15'0 0.0
2017-Oct-13 05:30N 38°03' W 122°15'0 0.1
2017-Oct-13 05:00N 38°03' W 122°15'0 0.1
2017-Oct-13 04:30N 38°03' W 122°15'0 0.1
2017-Oct-13 04:00N 38°03' W 122°15'0 0.1
2017-Oct-13 03:30N 38°03' W 122°15'0 0.0
2017-Oct-13 03:00N 38°03' W 122°15'0 0.0
2017-Oct-13 02:30N 38°03' W 122°15'0 0.1
2017-Oct-13 02:00N 38°03' W 122°15'0 0.1
2017-Oct-13 01:30N 38°03' W 122°15'0 0.0
2017-Oct-13 01:00N 38°03' W 122°15'0 0.0
2017-Oct-13 00:30N 38°03' W 122°15'0 0.0
2017-Oct-13 00:00N 38°03' W 122°15'0 0.0
2017-Oct-12 23:30N 38°03' W 122°15'0 0.0
2017-Oct-12 23:00N 38°03' W 122°15'0 0.0
2017-Oct-12 22:30N 38°03' W 122°15'0 0.0
2017-Oct-12 22:00N 38°03' W 122°15'0 0.0
2017-Oct-12 21:30N 38°03' W 122°15'0 0.0
2017-Oct-12 21:00N 38°03' W 122°15'0 0.0
2017-Oct-12 20:29N 38°03' W 122°15'0 0.1
2017-Oct-12 20:00N 38°03' W 122°15'0 0.1
2017-Oct-12 19:29N 38°03' W 122°15'6 3.5
2017-Oct-12 17:53N 38°02' W 122°08'0 0.3
2017-Oct-12 17:30N 38°02' W 122°08'0 0.3
2017-Oct-12 17:00N 38°02' W 122°08'2 0.8
2017-Oct-12 14:04N 38°03' W 122°11'1 9.9
2017-Oct-12 14:00N 38°03' W 122°11'4 7.4
2017-Oct-12 13:30N 38°03' W 122°16'0 0.0
2017-Oct-12 13:00N 38°03' W 122°16'0 0.0
2017-Oct-12 12:30N 38°03' W 122°16'0 0.2
2017-Oct-12 12:00N 38°03' W 122°16'1 0.1
2017-Oct-12 04:29N 38°04' W 122°15'3 1.5
2017-Oct-12 02:14N 38°03' W 122°11'2 7.7
2017-Oct-12 01:58N 38°04' W 122°13'4 8.9
2017-Oct-12 01:28N 38°03' W 122°19'510.6
2017-Oct-12 01:00N 38°01' W 122°24'611.2
2017-Oct-12 00:30N 37°56' W 122°27'612.3
2017-Oct-12 00:00N 37°50' W 122°24'510.9
2017-Oct-11 23:30N 37°45' W 122°20'0 0.4
2017-Oct-11 23:00N 37°46' W 122°20'4 7.7
2017-Oct-11 22:30N 37°48' W 122°24'0 0.0
2017-Oct-11 22:00N 37°48' W 122°24'0 0.0
2017-Oct-11 21:30N 37°48' W 122°24'0 0.0
2017-Oct-11 21:00N 37°48' W 122°24'0 0.0
2017-Oct-11 20:30N 37°48' W 122°24'0 0.0
2017-Oct-11 20:01N 37°48' W 122°24'0 0.0
2017-Oct-11 19:30N 37°48' W 122°24'0 0.0
2017-Oct-11 19:00N 37°48' W 122°24'0 0.0
2017-Oct-11 18:30N 37°48' W 122°24'0 0.0
2017-Oct-11 18:00N 37°48' W 122°24'0 0.0
2017-Oct-11 17:30N 37°48' W 122°24'0 0.0
2017-Oct-11 17:00N 37°48' W 122°24'6 0.3
2017-Oct-11 00:00N 37°54' W 122°26'5 9.7
2017-Oct-10 23:29N 37°59' W 122°26'4 9.0
2017-Oct-10 23:00N 38°02' W 122°22'4 8.1
2017-Oct-10 22:30N 38°03' W 122°18'3 5.8
2017-Oct-10 22:00N 38°04' W 122°14'5 6.4
2017-Oct-10 21:17N 38°02' W 122°08'2 1.7
2017-Oct-10 20:07N 38°03' W 122°11'2 8.5
2017-Oct-10 19:54N 38°04' W 122°13'1 2.4
2017-Oct-10 19:19N 38°03' W 122°15'0 0.0
2017-Oct-10 18:59N 38°03' W 122°15'0 0.0
2017-Oct-10 18:30N 38°03' W 122°15'0 0.0
2017-Oct-10 18:00N 38°03' W 122°15'0 0.0
2017-Oct-10 17:30N 38°03' W 122°15'0 0.1
2017-Oct-10 17:00N 38°03' W 122°15'0 0.1
2017-Oct-10 16:30N 38°03' W 122°15'0 0.0
2017-Oct-10 16:00N 38°03' W 122°15'0 0.0
2017-Oct-10 15:30N 38°03' W 122°15'0 0.0
2017-Oct-10 15:00N 38°03' W 122°15'0 0.0
2017-Oct-10 14:00N 38°03' W 122°15'0 0.0
2017-Oct-10 13:30N 38°03' W 122°15'0 0.0
2017-Oct-10 12:59N 38°03' W 122°15'0 0.0
2017-Oct-10 12:30N 38°03' W 122°15'0 0.0
2017-Oct-10 12:00N 38°03' W 122°15'0 0.0
2017-Oct-10 11:30N 38°03' W 122°15'0 0.0
2017-Oct-10 10:59N 38°03' W 122°15'0 0.0
2017-Oct-10 10:30N 38°03' W 122°15'0 0.0
2017-Oct-10 10:00N 38°03' W 122°15'0 0.0
2017-Oct-10 09:30N 38°03' W 122°15'3 5.1
2017-Oct-10 08:53N 38°03' W 122°19'4 9.4
2017-Oct-10 08:30N 38°01' W 122°23'5 9.7
2017-Oct-10 08:00N 37°57' W 122°26'5 9.9
2017-Oct-10 07:30N 37°52' W 122°24'4 7.8
2017-Oct-10 07:00N 37°49' W 122°22'3 5.8
2017-Oct-10 06:31N 37°48' W 122°19'1 1.8
2017-Oct-10 06:01N 37°48' W 122°17'1 1.2
2017-Oct-10 05:30N 37°48' W 122°18'2 4.2
2017-Oct-10 05:00N 37°48' W 122°21'0 0.5
2017-Oct-10 04:30N 37°48' W 122°21'0 0.0
2017-Oct-10 04:00N 37°48' W 122°21'0 0.1
2017-Oct-10 03:30N 37°48' W 122°21'0 0.6
2017-Oct-10 03:00N 37°49' W 122°21'  

Dump ship's entire track history